sensor_id;sensor_type;location;lat;lon;timestamp;temperature;humidity
27306;DHT22;14792;50.886;6.468;2023-05-14T00:02:49;10.40;99.90
27306;DHT22;14792;50.886;6.468;2023-05-14T00:05:51;10.30;99.90
27306;DHT22;14792;50.886;6.468;2023-05-14T00:08:52;10.20;99.90
27306;DHT22;14792;50.886;6.468;2023-05-14T00:11:54;10.10;99.90
27306;DHT22;14792;50.886;6.468;2023-05-14T00:14:55;10.20;99.90
27306;DHT22;14792;50.886;6.468;2023-05-14T00:17:57;10.20;99.90
27306;DHT22;14792;50.886;6.468;2023-05-14T00:20:59;10.30;99.90
27306;DHT22;14792;50.886;6.468;2023-05-14T00:24:00;10.20;99.90
27306;DHT22;14792;50.886;6.468;2023-05-14T00:27:02;10.10;99.90
27306;DHT22;14792;50.886;6.468;2023-05-14T00:30:04;10.10;99.90
27306;DHT22;14792;50.886;6.468;2023-05-14T00:33:06;10.10;99.90
27306;DHT22;14792;50.886;6.468;2023-05-14T00:36:08;10.20;99.90
27306;DHT22;14792;50.886;6.468;2023-05-14T00:39:09;10.20;99.90
27306;DHT22;14792;50.886;6.468;2023-05-14T00:42:11;10.10;99.90
27306;DHT22;14792;50.886;6.468;2023-05-14T00:45:12;10.10;99.90
27306;DHT22;14792;50.886;6.468;2023-05-14T00:48:14;10.10;99.90
27306;DHT22;14792;50.886;6.468;2023-05-14T00:51:16;10.10;99.90
27306;DHT22;14792;50.886;6.468;2023-05-14T00:54:17;10.20;99.90
27306;DHT22;14792;50.886;6.468;2023-05-14T00:57:19;10.20;99.90
27306;DHT22;14792;50.886;6.468;2023-05-14T01:00:20;10.00;99.90
27306;DHT22;14792;50.886;6.468;2023-05-14T01:03:22;10.00;99.90
27306;DHT22;14792;50.886;6.468;2023-05-14T01:06:33;10.10;99.90
27306;DHT22;14792;50.886;6.468;2023-05-14T01:10:01;10.00;99.90
27306;DHT22;14792;50.886;6.468;2023-05-14T01:13:26;10.00;99.90
27306;DHT22;14792;50.886;6.468;2023-05-14T01:16:25;9.90;99.90
27306;DHT22;14792;50.886;6.468;2023-05-14T01:19:34;9.90;99.90
27306;DHT22;14792;50.886;6.468;2023-05-14T01:22:34;9.90;99.90
27306;DHT22;14792;50.886;6.468;2023-05-14T01:25:35;9.80;99.90
27306;DHT22;14792;50.886;6.468;2023-05-14T01:28:37;9.80;99.90
27306;DHT22;14792;50.886;6.468;2023-05-14T01:31:39;9.80;99.90
27306;DHT22;14792;50.886;6.468;2023-05-14T01:34:40;9.60;99.90
27306;DHT22;14792;50.886;6.468;2023-05-14T01:37:42;9.60;99.90
27306;DHT22;14792;50.886;6.468;2023-05-14T01:40:44;9.70;99.90
27306;DHT22;14792;50.886;6.468;2023-05-14T01:43:45;9.70;99.90
27306;DHT22;14792;50.886;6.468;2023-05-14T01:46:47;9.70;99.90
27306;DHT22;14792;50.886;6.468;2023-05-14T01:49:48;9.60;99.90
27306;DHT22;14792;50.886;6.468;2023-05-14T01:52:50;9.50;99.90
27306;DHT22;14792;50.886;6.468;2023-05-14T01:55:51;9.40;99.90
27306;DHT22;14792;50.886;6.468;2023-05-14T01:58:53;9.30;99.90
27306;DHT22;14792;50.886;6.468;2023-05-14T02:01:55;9.20;99.90
27306;DHT22;14792;50.886;6.468;2023-05-14T02:04:56;9.30;99.90
27306;DHT22;14792;50.886;6.468;2023-05-14T02:07:58;9.30;99.90
27306;DHT22;14792;50.886;6.468;2023-05-14T02:10:59;9.40;99.90
27306;DHT22;14792;50.886;6.468;2023-05-14T02:14:03;9.40;99.90
27306;DHT22;14792;50.886;6.468;2023-05-14T02:17:04;9.40;99.90
27306;DHT22;14792;50.886;6.468;2023-05-14T02:20:06;9.40;99.90
27306;DHT22;14792;50.886;6.468;2023-05-14T02:23:08;9.40;99.90
27306;DHT22;14792;50.886;6.468;2023-05-14T02:26:10;9.20;99.90
27306;DHT22;14792;50.886;6.468;2023-05-14T02:29:11;9.10;99.90
27306;DHT22;14792;50.886;6.468;2023-05-14T02:32:12;8.90;99.90
27306;DHT22;14792;50.886;6.468;2023-05-14T02:35:14;8.90;99.90
27306;DHT22;14792;50.886;6.468;2023-05-14T02:38:16;8.90;99.90
27306;DHT22;14792;50.886;6.468;2023-05-14T02:41:17;9.00;99.90
27306;DHT22;14792;50.886;6.468;2023-05-14T02:44:19;9.00;99.90
27306;DHT22;14792;50.886;6.468;2023-05-14T02:47:20;9.00;99.90
27306;DHT22;14792;50.886;6.468;2023-05-14T02:50:22;8.90;99.90
27306;DHT22;14792;50.886;6.468;2023-05-14T02:53:24;8.90;99.90
27306;DHT22;14792;50.886;6.468;2023-05-14T02:56:25;8.80;99.90
27306;DHT22;14792;50.886;6.468;2023-05-14T02:59:27;8.80;99.90
27306;DHT22;14792;50.886;6.468;2023-05-14T03:02:28;8.80;99.90
27306;DHT22;14792;50.886;6.468;2023-05-14T03:05:30;8.80;99.90
27306;DHT22;14792;50.886;6.468;2023-05-14T03:08:32;8.90;99.90
27306;DHT22;14792;50.886;6.468;2023-05-14T03:11:33;8.80;99.90
27306;DHT22;14792;50.886;6.468;2023-05-14T03:14:35;8.70;99.90
27306;DHT22;14792;50.886;6.468;2023-05-14T03:17:36;8.70;99.90
27306;DHT22;14792;50.886;6.468;2023-05-14T03:20:38;8.70;99.90
27306;DHT22;14792;50.886;6.468;2023-05-14T03:23:40;8.80;99.90
27306;DHT22;14792;50.886;6.468;2023-05-14T03:26:41;8.90;99.90
27306;DHT22;14792;50.886;6.468;2023-05-14T03:29:43;9.00;99.90
27306;DHT22;14792;50.886;6.468;2023-05-14T03:32:45;9.10;99.90
27306;DHT22;14792;50.886;6.468;2023-05-14T03:35:46;9.10;99.90
27306;DHT22;14792;50.886;6.468;2023-05-14T03:38:48;9.10;99.90
27306;DHT22;14792;50.886;6.468;2023-05-14T03:41:49;9.10;99.90
27306;DHT22;14792;50.886;6.468;2023-05-14T03:44:51;9.10;99.90
27306;DHT22;14792;50.886;6.468;2023-05-14T03:47:53;9.10;99.90
27306;DHT22;14792;50.886;6.468;2023-05-14T03:50:54;9.10;99.90
27306;DHT22;14792;50.886;6.468;2023-05-14T03:53:56;9.10;99.90
27306;DHT22;14792;50.886;6.468;2023-05-14T03:56:58;9.10;99.90
27306;DHT22;14792;50.886;6.468;2023-05-14T03:59:59;9.10;99.90
27306;DHT22;14792;50.886;6.468;2023-05-14T04:03:01;9.10;99.90
27306;DHT22;14792;50.886;6.468;2023-05-14T04:06:03;9.00;99.90
27306;DHT22;14792;50.886;6.468;2023-05-14T04:09:05;9.00;99.90
27306;DHT22;14792;50.886;6.468;2023-05-14T04:12:06;9.00;99.90
27306;DHT22;14792;50.886;6.468;2023-05-14T04:15:08;9.00;99.90
27306;DHT22;14792;50.886;6.468;2023-05-14T04:18:09;9.00;99.90
27306;DHT22;14792;50.886;6.468;2023-05-14T04:21:11;8.90;99.90
27306;DHT22;14792;50.886;6.468;2023-05-14T04:24:13;8.90;99.90
27306;DHT22;14792;50.886;6.468;2023-05-14T04:27:23;9.00;99.90
27306;DHT22;14792;50.886;6.468;2023-05-14T04:30:16;9.00;99.90
27306;DHT22;14792;50.886;6.468;2023-05-14T04:33:18;9.00;99.90
27306;DHT22;14792;50.886;6.468;2023-05-14T04:36:19;9.00;99.90
27306;DHT22;14792;50.886;6.468;2023-05-14T04:39:21;9.10;99.90
27306;DHT22;14792;50.886;6.468;2023-05-14T04:42:22;9.10;99.90
27306;DHT22;14792;50.886;6.468;2023-05-14T04:45:24;9.20;99.90
27306;DHT22;14792;50.886;6.468;2023-05-14T04:48:26;9.20;99.90
27306;DHT22;14792;50.886;6.468;2023-05-14T04:51:27;9.20;99.90
27306;DHT22;14792;50.886;6.468;2023-05-14T04:54:29;9.20;99.90
27306;DHT22;14792;50.886;6.468;2023-05-14T04:57:31;9.20;99.90
27306;DHT22;14792;50.886;6.468;2023-05-14T05:00:33;9.20;99.90
27306;DHT22;14792;50.886;6.468;2023-05-14T05:03:34;9.30;99.90
27306;DHT22;14792;50.886;6.468;2023-05-14T05:06:36;9.30;99.90
27306;DHT22;14792;50.886;6.468;2023-05-14T05:09:38;9.30;99.90
27306;DHT22;14792;50.886;6.468;2023-05-14T05:12:39;9.30;99.90
27306;DHT22;14792;50.886;6.468;2023-05-14T05:15:41;9.30;99.90
27306;DHT22;14792;50.886;6.468;2023-05-14T05:18:43;9.30;99.90
27306;DHT22;14792;50.886;6.468;2023-05-14T05:21:44;9.40;99.90
27306;DHT22;14792;50.886;6.468;2023-05-14T05:24:47;9.50;99.90
27306;DHT22;14792;50.886;6.468;2023-05-14T05:27:49;9.60;99.90
27306;DHT22;14792;50.886;6.468;2023-05-14T05:30:52;9.70;99.90
27306;DHT22;14792;50.886;6.468;2023-05-14T05:33:53;9.90;99.90
27306;DHT22;14792;50.886;6.468;2023-05-14T05:36:55;10.00;99.90
27306;DHT22;14792;50.886;6.468;2023-05-14T05:39:57;10.10;99.90
27306;DHT22;14792;50.886;6.468;2023-05-14T05:42:58;10.20;99.90
27306;DHT22;14792;50.886;6.468;2023-05-14T05:46:00;10.30;99.90
27306;DHT22;14792;50.886;6.468;2023-05-14T05:49:01;10.40;99.90
27306;DHT22;14792;50.886;6.468;2023-05-14T05:52:03;10.40;99.90
27306;DHT22;14792;50.886;6.468;2023-05-14T05:55:05;10.50;99.90
27306;DHT22;14792;50.886;6.468;2023-05-14T05:58:06;10.50;99.90
27306;DHT22;14792;50.886;6.468;2023-05-14T06:01:08;10.60;99.90
27306;DHT22;14792;50.886;6.468;2023-05-14T06:04:10;10.70;99.90
27306;DHT22;14792;50.886;6.468;2023-05-14T06:07:11;10.80;99.90
27306;DHT22;14792;50.886;6.468;2023-05-14T06:10:13;10.90;99.90
27306;DHT22;14792;50.886;6.468;2023-05-14T06:13:15;11.10;99.90
27306;DHT22;14792;50.886;6.468;2023-05-14T06:16:16;11.30;99.90
27306;DHT22;14792;50.886;6.468;2023-05-14T06:19:18;11.40;99.90
27306;DHT22;14792;50.886;6.468;2023-05-14T06:22:20;11.60;99.90
27306;DHT22;14792;50.886;6.468;2023-05-14T06:25:22;11.70;99.90
27306;DHT22;14792;50.886;6.468;2023-05-14T06:28:23;11.90;99.90
27306;DHT22;14792;50.886;6.468;2023-05-14T06:31:25;12.00;99.90
27306;DHT22;14792;50.886;6.468;2023-05-14T06:34:26;12.20;99.90
27306;DHT22;14792;50.886;6.468;2023-05-14T06:37:28;12.40;99.90
27306;DHT22;14792;50.886;6.468;2023-05-14T06:40:30;12.60;99.90
27306;DHT22;14792;50.886;6.468;2023-05-14T06:43:31;12.90;99.90
27306;DHT22;14792;50.886;6.468;2023-05-14T06:46:33;13.10;99.90
27306;DHT22;14792;50.886;6.468;2023-05-14T06:49:35;13.30;99.90
27306;DHT22;14792;50.886;6.468;2023-05-14T06:52:37;13.40;99.90
27306;DHT22;14792;50.886;6.468;2023-05-14T06:55:38;13.70;99.90
27306;DHT22;14792;50.886;6.468;2023-05-14T06:58:40;13.70;99.90
27306;DHT22;14792;50.886;6.468;2023-05-14T07:01:42;14.00;99.90
27306;DHT22;14792;50.886;6.468;2023-05-14T07:04:44;14.30;99.90
27306;DHT22;14792;50.886;6.468;2023-05-14T07:07:46;14.60;99.90
27306;DHT22;14792;50.886;6.468;2023-05-14T07:10:47;14.60;99.90
27306;DHT22;14792;50.886;6.468;2023-05-14T07:13:49;14.80;99.90
27306;DHT22;14792;50.886;6.468;2023-05-14T07:16:52;14.90;99.90
27306;DHT22;14792;50.886;6.468;2023-05-14T07:19:54;15.20;99.90
27306;DHT22;14792;50.886;6.468;2023-05-14T07:22:56;15.40;99.90
27306;DHT22;14792;50.886;6.468;2023-05-14T07:25:59;15.70;99.90
27306;DHT22;14792;50.886;6.468;2023-05-14T07:29:01;15.90;99.90
27306;DHT22;14792;50.886;6.468;2023-05-14T07:32:02;16.20;99.90
27306;DHT22;14792;50.886;6.468;2023-05-14T07:35:05;16.60;99.90
27306;DHT22;14792;50.886;6.468;2023-05-14T07:38:06;16.70;99.90
27306;DHT22;14792;50.886;6.468;2023-05-14T07:41:08;16.80;99.90
27306;DHT22;14792;50.886;6.468;2023-05-14T07:44:10;16.80;99.90
27306;DHT22;14792;50.886;6.468;2023-05-14T07:47:11;17.00;99.90
27306;DHT22;14792;50.886;6.468;2023-05-14T07:50:13;16.80;99.90
27306;DHT22;14792;50.886;6.468;2023-05-14T07:53:14;17.00;99.90
27306;DHT22;14792;50.886;6.468;2023-05-14T07:56:16;17.20;99.90
27306;DHT22;14792;50.886;6.468;2023-05-14T07:59:18;17.40;99.90
27306;DHT22;14792;50.886;6.468;2023-05-14T08:02:19;17.50;99.90
27306;DHT22;14792;50.886;6.468;2023-05-14T08:05:21;17.40;99.90
27306;DHT22;14792;50.886;6.468;2023-05-14T08:08:23;17.60;99.90
27306;DHT22;14792;50.886;6.468;2023-05-14T08:11:24;17.90;99.90
27306;DHT22;14792;50.886;6.468;2023-05-14T08:14:26;18.00;99.90
27306;DHT22;14792;50.886;6.468;2023-05-14T08:17:27;18.00;99.90
27306;DHT22;14792;50.886;6.468;2023-05-14T08:20:29;18.40;99.90
27306;DHT22;14792;50.886;6.468;2023-05-14T08:23:31;18.50;99.90
27306;DHT22;14792;50.886;6.468;2023-05-14T08:26:32;18.80;99.90
27306;DHT22;14792;50.886;6.468;2023-05-14T08:29:34;19.00;99.90
27306;DHT22;14792;50.886;6.468;2023-05-14T08:32:36;19.30;99.90
27306;DHT22;14792;50.886;6.468;2023-05-14T08:35:37;19.40;99.90
27306;DHT22;14792;50.886;6.468;2023-05-14T08:38:39;19.50;99.90
27306;DHT22;14792;50.886;6.468;2023-05-14T08:41:40;19.80;99.90
27306;DHT22;14792;50.886;6.468;2023-05-14T08:44:52;19.90;99.90
27306;DHT22;14792;50.886;6.468;2023-05-14T08:47:48;20.20;99.90
27306;DHT22;14792;50.886;6.468;2023-05-14T08:50:49;20.10;99.90
27306;DHT22;14792;50.886;6.468;2023-05-14T08:53:51;20.30;99.90
27306;DHT22;14792;50.886;6.468;2023-05-14T08:56:52;20.30;99.90
27306;DHT22;14792;50.886;6.468;2023-05-14T08:59:54;20.60;99.90
27306;DHT22;14792;50.886;6.468;2023-05-14T09:02:56;20.90;99.90
27306;DHT22;14792;50.886;6.468;2023-05-14T09:05:58;20.90;99.90
27306;DHT22;14792;50.886;6.468;2023-05-14T09:08:59;20.70;99.90
27306;DHT22;14792;50.886;6.468;2023-05-14T09:12:01;20.90;99.90
27306;DHT22;14792;50.886;6.468;2023-05-14T09:15:03;20.80;99.90
27306;DHT22;14792;50.886;6.468;2023-05-14T09:18:04;21.00;99.90
27306;DHT22;14792;50.886;6.468;2023-05-14T09:21:06;21.50;99.90
27306;DHT22;14792;50.886;6.468;2023-05-14T09:24:07;21.20;99.90
27306;DHT22;14792;50.886;6.468;2023-05-14T09:27:14;21.40;99.90
27306;DHT22;14792;50.886;6.468;2023-05-14T09:30:11;21.40;99.90
27306;DHT22;14792;50.886;6.468;2023-05-14T09:33:12;21.30;99.90
27306;DHT22;14792;50.886;6.468;2023-05-14T09:36:14;21.40;99.90
27306;DHT22;14792;50.886;6.468;2023-05-14T09:39:16;21.30;99.90
27306;DHT22;14792;50.886;6.468;2023-05-14T09:42:17;21.60;99.90
27306;DHT22;14792;50.886;6.468;2023-05-14T09:45:19;21.60;99.90
27306;DHT22;14792;50.886;6.468;2023-05-14T09:48:20;21.30;99.90
27306;DHT22;14792;50.886;6.468;2023-05-14T09:51:22;21.50;99.90
27306;DHT22;14792;50.886;6.468;2023-05-14T09:54:24;21.00;99.90
27306;DHT22;14792;50.886;6.468;2023-05-14T09:57:25;21.30;99.90
27306;DHT22;14792;50.886;6.468;2023-05-14T10:00:28;21.50;99.90
27306;DHT22;14792;50.886;6.468;2023-05-14T10:03:29;21.60;99.90
27306;DHT22;14792;50.886;6.468;2023-05-14T10:06:32;21.70;99.90
27306;DHT22;14792;50.886;6.468;2023-05-14T10:09:33;22.00;99.90
27306;DHT22;14792;50.886;6.468;2023-05-14T10:12:37;21.80;99.90
27306;DHT22;14792;50.886;6.468;2023-05-14T10:18:45;22.10;99.90
27306;DHT22;14792;50.886;6.468;2023-05-14T10:21:46;22.20;99.90
27306;DHT22;14792;50.886;6.468;2023-05-14T10:24:46;22.30;99.90
27306;DHT22;14792;50.886;6.468;2023-05-14T10:27:48;22.50;99.90
27306;DHT22;14792;50.886;6.468;2023-05-14T10:30:49;22.40;99.90
27306;DHT22;14792;50.886;6.468;2023-05-14T10:33:51;22.60;99.90
27306;DHT22;14792;50.886;6.468;2023-05-14T10:36:53;21.90;99.90
27306;DHT22;14792;50.886;6.468;2023-05-14T10:40:03;22.50;99.90
27306;DHT22;14792;50.886;6.468;2023-05-14T10:43:08;22.70;99.90
27306;DHT22;14792;50.886;6.468;2023-05-14T10:46:10;22.60;99.90
27306;DHT22;14792;50.886;6.468;2023-05-14T10:49:11;22.70;99.90
27306;DHT22;14792;50.886;6.468;2023-05-14T10:52:14;23.00;99.90
27306;DHT22;14792;50.886;6.468;2023-05-14T10:55:14;22.80;99.90
27306;DHT22;14792;50.886;6.468;2023-05-14T10:58:16;22.70;99.90
27306;DHT22;14792;50.886;6.468;2023-05-14T11:01:17;23.10;99.90
27306;DHT22;14792;50.886;6.468;2023-05-14T11:04:22;22.90;99.90
27306;DHT22;14792;50.886;6.468;2023-05-14T11:10:26;22.90;99.90
27306;DHT22;14792;50.886;6.468;2023-05-14T11:13:31;23.20;99.90
27306;DHT22;14792;50.886;6.468;2023-05-14T11:16:32;23.20;99.90
27306;DHT22;14792;50.886;6.468;2023-05-14T11:19:34;22.90;99.90
27306;DHT22;14792;50.886;6.468;2023-05-14T11:22:36;23.50;99.90
27306;DHT22;14792;50.886;6.468;2023-05-14T11:25:37;23.60;99.90
27306;DHT22;14792;50.886;6.468;2023-05-14T11:28:39;23.60;99.90
27306;DHT22;14792;50.886;6.468;2023-05-14T11:31:41;23.60;99.90
27306;DHT22;14792;50.886;6.468;2023-05-14T11:34:43;23.20;99.90
27306;DHT22;14792;50.886;6.468;2023-05-14T11:37:49;23.80;99.90
27306;DHT22;14792;50.886;6.468;2023-05-14T11:40:51;23.30;99.90
27306;DHT22;14792;50.886;6.468;2023-05-14T11:43:52;23.00;99.90
27306;DHT22;14792;50.886;6.468;2023-05-14T11:46:57;23.50;99.90
27306;DHT22;14792;50.886;6.468;2023-05-14T11:49:58;23.80;99.90
27306;DHT22;14792;50.886;6.468;2023-05-14T11:53:00;23.90;99.90
27306;DHT22;14792;50.886;6.468;2023-05-14T11:56:01;24.30;99.90
27306;DHT22;14792;50.886;6.468;2023-05-14T11:59:03;23.90;99.90
27306;DHT22;14792;50.886;6.468;2023-05-14T12:02:07;23.40;99.90
27306;DHT22;14792;50.886;6.468;2023-05-14T12:05:06;23.50;99.90
27306;DHT22;14792;50.886;6.468;2023-05-14T12:08:27;23.90;99.90
27306;DHT22;14792;50.886;6.468;2023-05-14T12:11:30;23.40;99.90
27306;DHT22;14792;50.886;6.468;2023-05-14T12:14:35;22.90;99.90
27306;DHT22;14792;50.886;6.468;2023-05-14T12:17:33;22.70;99.90
27306;DHT22;14792;50.886;6.468;2023-05-14T12:20:35;22.50;99.90
27306;DHT22;14792;50.886;6.468;2023-05-14T12:23:37;22.50;99.90
27306;DHT22;14792;50.886;6.468;2023-05-14T12:26:39;22.70;99.90
27306;DHT22;14792;50.886;6.468;2023-05-14T12:29:40;23.10;99.90
27306;DHT22;14792;50.886;6.468;2023-05-14T12:32:41;22.70;99.90
27306;DHT22;14792;50.886;6.468;2023-05-14T12:35:43;22.50;99.90
27306;DHT22;14792;50.886;6.468;2023-05-14T12:38:45;22.20;99.90
27306;DHT22;14792;50.886;6.468;2023-05-14T12:41:47;22.00;99.90
27306;DHT22;14792;50.886;6.468;2023-05-14T12:44:49;22.20;99.90
27306;DHT22;14792;50.886;6.468;2023-05-14T12:47:50;22.30;99.90
27306;DHT22;14792;50.886;6.468;2023-05-14T12:50:51;22.10;99.90
27306;DHT22;14792;50.886;6.468;2023-05-14T12:53:54;22.20;99.90
27306;DHT22;14792;50.886;6.468;2023-05-14T12:56:56;22.10;99.90
27306;DHT22;14792;50.886;6.468;2023-05-14T12:59:57;22.00;99.90
27306;DHT22;14792;50.886;6.468;2023-05-14T13:02:59;21.90;99.90
27306;DHT22;14792;50.886;6.468;2023-05-14T13:06:01;22.00;99.90
27306;DHT22;14792;50.886;6.468;2023-05-14T13:09:03;21.90;99.90
27306;DHT22;14792;50.886;6.468;2023-05-14T13:12:05;21.80;99.90
27306;DHT22;14792;50.886;6.468;2023-05-14T13:15:06;21.80;99.90
27306;DHT22;14792;50.886;6.468;2023-05-14T13:18:08;22.40;99.90
27306;DHT22;14792;50.886;6.468;2023-05-14T13:21:09;22.80;99.90
27306;DHT22;14792;50.886;6.468;2023-05-14T13:24:11;23.20;99.90
27306;DHT22;14792;50.886;6.468;2023-05-14T13:27:13;23.50;99.90
27306;DHT22;14792;50.886;6.468;2023-05-14T13:30:15;23.60;99.90
27306;DHT22;14792;50.886;6.468;2023-05-14T13:33:16;23.70;99.90
27306;DHT22;14792;50.886;6.468;2023-05-14T13:36:18;23.60;99.90
27306;DHT22;14792;50.886;6.468;2023-05-14T13:39:19;23.30;99.90
27306;DHT22;14792;50.886;6.468;2023-05-14T13:42:21;23.00;99.90
27306;DHT22;14792;50.886;6.468;2023-05-14T13:45:23;22.70;99.90
27306;DHT22;14792;50.886;6.468;2023-05-14T13:48:25;22.90;99.90
27306;DHT22;14792;50.886;6.468;2023-05-14T13:51:27;22.70;99.90
27306;DHT22;14792;50.886;6.468;2023-05-14T13:54:28;22.60;99.90
27306;DHT22;14792;50.886;6.468;2023-05-14T13:57:30;22.60;99.90
27306;DHT22;14792;50.886;6.468;2023-05-14T14:00:32;22.40;99.90
27306;DHT22;14792;50.886;6.468;2023-05-14T14:03:33;22.30;99.90
27306;DHT22;14792;50.886;6.468;2023-05-14T14:06:35;22.20;99.90
27306;DHT22;14792;50.886;6.468;2023-05-14T14:09:37;22.10;99.90
27306;DHT22;14792;50.886;6.468;2023-05-14T14:12:38;22.50;99.90
27306;DHT22;14792;50.886;6.468;2023-05-14T14:15:40;22.80;99.90
27306;DHT22;14792;50.886;6.468;2023-05-14T14:18:42;22.80;99.90
27306;DHT22;14792;50.886;6.468;2023-05-14T14:21:43;22.40;99.70
27306;DHT22;14792;50.886;6.468;2023-05-14T14:24:45;22.00;98.60
27306;DHT22;14792;50.886;6.468;2023-05-14T14:27:46;22.30;99.90
27306;DHT22;14792;50.886;6.468;2023-05-14T14:30:49;22.50;97.50
27306;DHT22;14792;50.886;6.468;2023-05-14T14:33:51;22.60;99.90
27306;DHT22;14792;50.886;6.468;2023-05-14T14:36:52;22.90;99.90
27306;DHT22;14792;50.886;6.468;2023-05-14T14:39:54;23.30;99.90
27306;DHT22;14792;50.886;6.468;2023-05-14T14:42:56;23.50;99.20
27306;DHT22;14792;50.886;6.468;2023-05-14T14:45:58;23.50;99.10
27306;DHT22;14792;50.886;6.468;2023-05-14T14:48:59;23.20;99.90
27306;DHT22;14792;50.886;6.468;2023-05-14T14:52:01;22.80;98.50
27306;DHT22;14792;50.886;6.468;2023-05-14T14:55:03;22.20;97.90
27306;DHT22;14792;50.886;6.468;2023-05-14T14:58:04;22.10;99.60
27306;DHT22;14792;50.886;6.468;2023-05-14T15:01:06;22.10;99.90
27306;DHT22;14792;50.886;6.468;2023-05-14T15:04:08;22.10;99.70
27306;DHT22;14792;50.886;6.468;2023-05-14T15:07:10;22.40;99.90
27306;DHT22;14792;50.886;6.468;2023-05-14T15:10:11;22.50;97.70
27306;DHT22;14792;50.886;6.468;2023-05-14T15:13:13;22.50;98.10
27306;DHT22;14792;50.886;6.468;2023-05-14T15:16:15;22.50;99.90
27306;DHT22;14792;50.886;6.468;2023-05-14T15:19:16;22.40;99.90
27306;DHT22;14792;50.886;6.468;2023-05-14T15:22:18;22.80;99.90
27306;DHT22;14792;50.886;6.468;2023-05-14T15:25:20;23.10;99.90
27306;DHT22;14792;50.886;6.468;2023-05-14T15:28:21;22.80;99.90
27306;DHT22;14792;50.886;6.468;2023-05-14T15:31:23;22.70;99.90
27306;DHT22;14792;50.886;6.468;2023-05-14T15:34:24;22.70;99.90
27306;DHT22;14792;50.886;6.468;2023-05-14T15:37:26;22.50;99.90
27306;DHT22;14792;50.886;6.468;2023-05-14T15:40:28;22.40;99.90
27306;DHT22;14792;50.886;6.468;2023-05-14T15:43:29;22.40;99.90
27306;DHT22;14792;50.886;6.468;2023-05-14T15:46:31;22.20;99.90
27306;DHT22;14792;50.886;6.468;2023-05-14T15:49:33;22.20;99.90
27306;DHT22;14792;50.886;6.468;2023-05-14T15:52:34;22.00;99.90
27306;DHT22;14792;50.886;6.468;2023-05-14T15:55:36;22.00;99.90
27306;DHT22;14792;50.886;6.468;2023-05-14T15:58:37;21.70;99.90
27306;DHT22;14792;50.886;6.468;2023-05-14T16:01:39;21.60;99.90
27306;DHT22;14792;50.886;6.468;2023-05-14T16:04:41;21.60;99.90
27306;DHT22;14792;50.886;6.468;2023-05-14T16:07:42;21.70;99.90
27306;DHT22;14792;50.886;6.468;2023-05-14T16:10:44;21.60;99.90
27306;DHT22;14792;50.886;6.468;2023-05-14T16:13:46;21.50;99.90
27306;DHT22;14792;50.886;6.468;2023-05-14T16:16:47;21.50;99.90
27306;DHT22;14792;50.886;6.468;2023-05-14T16:19:49;21.50;99.90
27306;DHT22;14792;50.886;6.468;2023-05-14T16:22:50;21.60;99.90
27306;DHT22;14792;50.886;6.468;2023-05-14T16:25:52;21.50;99.90
27306;DHT22;14792;50.886;6.468;2023-05-14T16:28:54;21.40;99.90
27306;DHT22;14792;50.886;6.468;2023-05-14T16:31:56;21.30;99.90
27306;DHT22;14792;50.886;6.468;2023-05-14T16:34:57;21.20;99.90
27306;DHT22;14792;50.886;6.468;2023-05-14T16:38:00;21.10;99.90
27306;DHT22;14792;50.886;6.468;2023-05-14T16:41:02;21.00;99.90
27306;DHT22;14792;50.886;6.468;2023-05-14T16:44:03;20.90;99.90
27306;DHT22;14792;50.886;6.468;2023-05-14T16:47:05;20.70;99.90
27306;DHT22;14792;50.886;6.468;2023-05-14T16:50:06;20.60;99.90
27306;DHT22;14792;50.886;6.468;2023-05-14T16:53:11;20.50;99.90
27306;DHT22;14792;50.886;6.468;2023-05-14T16:56:12;20.30;99.90
27306;DHT22;14792;50.886;6.468;2023-05-14T16:59:14;20.20;99.90
27306;DHT22;14792;50.886;6.468;2023-05-14T17:02:16;20.20;99.90
27306;DHT22;14792;50.886;6.468;2023-05-14T17:05:18;20.00;99.90
27306;DHT22;14792;50.886;6.468;2023-05-14T17:08:19;20.00;99.90
27306;DHT22;14792;50.886;6.468;2023-05-14T17:11:21;20.00;99.90
27306;DHT22;14792;50.886;6.468;2023-05-14T17:14:22;19.90;99.90
27306;DHT22;14792;50.886;6.468;2023-05-14T17:17:24;19.90;99.90
27306;DHT22;14792;50.886;6.468;2023-05-14T17:20:26;19.80;99.90
27306;DHT22;14792;50.886;6.468;2023-05-14T17:23:27;19.80;99.90
27306;DHT22;14792;50.886;6.468;2023-05-14T17:26:29;19.70;99.90
27306;DHT22;14792;50.886;6.468;2023-05-14T17:29:30;19.60;99.90
27306;DHT22;14792;50.886;6.468;2023-05-14T17:32:32;19.60;99.90
27306;DHT22;14792;50.886;6.468;2023-05-14T17:35:34;19.50;99.90
27306;DHT22;14792;50.886;6.468;2023-05-14T17:38:35;19.50;99.90
27306;DHT22;14792;50.886;6.468;2023-05-14T17:41:37;19.40;99.90
27306;DHT22;14792;50.886;6.468;2023-05-14T17:44:39;19.50;99.90
27306;DHT22;14792;50.886;6.468;2023-05-14T17:47:41;19.40;99.90
27306;DHT22;14792;50.886;6.468;2023-05-14T17:50:42;19.30;99.90
27306;DHT22;14792;50.886;6.468;2023-05-14T17:53:44;19.30;99.90
27306;DHT22;14792;50.886;6.468;2023-05-14T17:56:45;19.20;99.90
27306;DHT22;14792;50.886;6.468;2023-05-14T17:59:47;19.10;99.90
27306;DHT22;14792;50.886;6.468;2023-05-14T18:02:49;19.00;99.90
27306;DHT22;14792;50.886;6.468;2023-05-14T18:05:50;19.00;99.90
27306;DHT22;14792;50.886;6.468;2023-05-14T18:08:52;18.90;99.90
27306;DHT22;14792;50.886;6.468;2023-05-14T18:11:54;18.70;99.90
27306;DHT22;14792;50.886;6.468;2023-05-14T18:14:55;18.60;99.90
27306;DHT22;14792;50.886;6.468;2023-05-14T18:17:57;18.60;99.90
27306;DHT22;14792;50.886;6.468;2023-05-14T18:20:58;18.50;99.90
27306;DHT22;14792;50.886;6.468;2023-05-14T18:24:00;18.40;99.90
27306;DHT22;14792;50.886;6.468;2023-05-14T18:27:02;18.30;99.90
27306;DHT22;14792;50.886;6.468;2023-05-14T18:30:03;18.30;99.90
27306;DHT22;14792;50.886;6.468;2023-05-14T18:33:05;18.20;99.90
27306;DHT22;14792;50.886;6.468;2023-05-14T18:36:07;18.20;99.90
27306;DHT22;14792;50.886;6.468;2023-05-14T18:39:08;18.10;99.90
27306;DHT22;14792;50.886;6.468;2023-05-14T18:42:10;18.10;99.90
27306;DHT22;14792;50.886;6.468;2023-05-14T18:45:12;18.00;99.90
27306;DHT22;14792;50.886;6.468;2023-05-14T18:48:14;17.90;99.90
27306;DHT22;14792;50.886;6.468;2023-05-14T18:51:15;17.80;99.90
27306;DHT22;14792;50.886;6.468;2023-05-14T18:54:17;17.80;99.90
27306;DHT22;14792;50.886;6.468;2023-05-14T18:57:18;17.80;99.90
27306;DHT22;14792;50.886;6.468;2023-05-14T19:00:20;17.80;99.90
27306;DHT22;14792;50.886;6.468;2023-05-14T19:03:22;17.70;99.90
27306;DHT22;14792;50.886;6.468;2023-05-14T19:06:23;17.70;99.90
27306;DHT22;14792;50.886;6.468;2023-05-14T19:09:26;17.60;99.90
27306;DHT22;14792;50.886;6.468;2023-05-14T19:12:27;17.50;99.90
27306;DHT22;14792;50.886;6.468;2023-05-14T19:15:29;17.50;99.90
27306;DHT22;14792;50.886;6.468;2023-05-14T19:18:31;17.40;99.90
27306;DHT22;14792;50.886;6.468;2023-05-14T19:21:32;17.40;99.90